createdAt,value
2023-05-20T00:01:21.768Z,83.95
2023-05-20T00:06:14.603Z,84.02
2023-05-20T00:11:07.430Z,83.99
2023-05-20T00:16:00.387Z,83.98
2023-05-20T00:20:54.560Z,83.80
2023-05-20T00:25:47.406Z,83.73
2023-05-20T00:30:43.542Z,83.56
2023-05-20T00:35:36.734Z,83.68
2023-05-20T00:40:29.736Z,83.54
2023-05-20T00:45:23.071Z,83.42
2023-05-20T00:50:16.194Z,83.44
2023-05-20T00:55:09.852Z,83.38
2023-05-20T01:00:02.963Z,83.46
2023-05-20T01:04:56.972Z,83.38
2023-05-20T01:09:49.921Z,83.26
2023-05-20T01:15:00.763Z,83.32
2023-05-20T01:19:56.273Z,83.41
2023-05-20T01:24:49.615Z,83.28
2023-05-20T01:29:44.573Z,83.34
2023-05-20T01:34:38.678Z,83.46
2023-05-20T01:39:33.249Z,83.54
2023-05-20T01:44:26.389Z,83.60
2023-05-20T01:49:19.275Z,83.53
2023-05-20T01:54:12.124Z,83.45
2023-05-20T01:59:05.049Z,83.47
2023-05-20T02:03:57.895Z,83.55
2023-05-20T02:08:50.828Z,83.51
2023-05-20T02:13:45.028Z,83.60
2023-05-20T02:18:38.742Z,83.36
2023-05-20T02:23:32.747Z,83.65
2023-05-20T02:28:25.632Z,83.42
2023-05-20T02:33:19.018Z,83.55
2023-05-20T02:38:13.796Z,83.67
2023-05-20T02:43:06.718Z,83.41
2023-05-20T02:48:01.048Z,83.33
2023-05-20T02:52:54.035Z,83.07
2023-05-20T02:57:47.105Z,82.96
2023-05-20T03:02:40.534Z,82.96
2023-05-20T03:07:37.401Z,82.68
2023-05-20T03:12:32.282Z,82.58
2023-05-20T03:17:25.312Z,82.62
2023-05-20T03:22:18.175Z,82.39
2023-05-20T03:27:11.109Z,82.38
2023-05-20T03:32:04.828Z,82.24
2023-05-20T03:37:00.363Z,82.08
2023-05-20T03:41:53.603Z,82.00
2023-05-20T03:46:47.193Z,81.91
2023-05-20T03:51:40.126Z,81.76
2023-05-20T03:56:36.624Z,81.76
2023-05-20T04:01:29.786Z,81.52
2023-05-20T04:06:22.924Z,81.43
2023-05-20T04:11:16.060Z,81.26
2023-05-20T04:16:09.119Z,81.25
2023-05-20T04:21:02.193Z,81.21
2023-05-20T04:25:55.283Z,81.10
2023-05-20T04:30:50.224Z,80.89
2023-05-20T04:35:44.397Z,80.75
2023-05-20T04:40:37.382Z,80.66
2023-05-20T04:45:30.321Z,80.49
2023-05-20T04:50:23.272Z,80.22
2023-05-20T04:55:16.415Z,79.97
2023-05-20T05:00:11.063Z,79.81
2023-05-20T05:05:04.532Z,79.47
2023-05-20T05:09:57.508Z,79.14
2023-05-20T05:14:50.832Z,78.98
2023-05-20T05:19:43.788Z,78.63
2023-05-20T05:24:36.873Z,78.18
2023-05-20T05:29:29.770Z,77.74
2023-05-20T05:34:22.805Z,77.52
2023-05-20T05:39:15.854Z,77.18
2023-05-20T05:44:09.357Z,76.78
2023-05-20T05:49:02.418Z,76.26
2023-05-20T05:53:55.402Z,75.77
2023-05-20T05:58:48.860Z,75.55
2023-05-20T06:03:42.210Z,74.87
2023-05-20T06:08:35.265Z,74.78
2023-05-20T06:13:28.460Z,74.12
2023-05-20T06:18:22.644Z,72.81
2023-05-20T06:23:18.467Z,71.76
2023-05-20T06:28:19.426Z,71.36
2023-05-20T06:33:13.105Z,70.65
2023-05-20T06:38:06.206Z,69.68
2023-05-20T06:42:59.874Z,68.84
2023-05-20T06:48:11.486Z,66.79
2023-05-20T06:53:05.461Z,66.21
2023-05-20T06:57:58.638Z,65.94
2023-05-20T07:02:51.906Z,65.00
2023-05-20T07:07:46.236Z,64.44
2023-05-20T07:12:39.685Z,63.77
2023-05-20T07:17:32.551Z,62.34
2023-05-20T07:22:25.804Z,62.14
2023-05-20T07:27:35.313Z,59.97
2023-05-20T07:32:29.182Z,57.48
2023-05-20T07:37:22.714Z,55.11
2023-05-20T07:42:16.109Z,51.64
2023-05-20T07:47:12.151Z,49.98
2023-05-20T07:52:05.532Z,50.90
2023-05-20T07:57:00.453Z,49.62
2023-05-20T08:01:55.300Z,49.31
2023-05-20T08:06:48.254Z,48.33
2023-05-20T08:11:47.693Z,47.38
2023-05-20T08:16:41.224Z,45.08
2023-05-20T08:21:35.426Z,43.26
2023-05-20T08:26:28.591Z,43.00
2023-05-20T08:31:21.502Z,44.35
2023-05-20T08:36:14.928Z,43.64
2023-05-20T08:41:07.882Z,40.44
2023-05-20T08:46:03.176Z,39.41
2023-05-20T08:50:59.364Z,41.31
2023-05-20T08:56:00.901Z,42.47
2023-05-20T09:00:54.603Z,41.94
2023-05-20T09:05:49.105Z,42.89
2023-05-20T09:10:43.295Z,44.16
2023-05-20T09:15:37.532Z,42.42
2023-05-20T09:20:31.868Z,39.71
2023-05-20T09:25:24.783Z,39.29
2023-05-20T09:30:22.067Z,39.47
2023-05-20T09:35:15.680Z,38.03
2023-05-20T09:40:10.270Z,36.35
2023-05-20T09:45:04.374Z,34.77
2023-05-20T09:49:58.600Z,33.55
2023-05-20T09:54:52.409Z,32.71
2023-05-20T09:59:45.751Z,32.44
2023-05-20T10:04:44.152Z,32.53
2023-05-20T10:10:08.975Z,33.23
2023-05-20T10:15:41.191Z,33.74
2023-05-20T10:20:34.204Z,34.59
2023-05-20T10:25:29.724Z,35.46
2023-05-20T10:30:23.541Z,36.95
2023-05-20T10:35:23.659Z,37.12
2023-05-20T10:40:19.509Z,36.28
2023-05-20T10:45:13.429Z,36.43
2023-05-20T10:50:07.852Z,37.25
2023-05-20T10:55:02.312Z,38.02
2023-05-20T10:59:56.543Z,38.30
2023-05-20T11:04:50.192Z,38.48
2023-05-20T11:09:51.556Z,38.75
2023-05-20T11:14:44.492Z,39.61
2023-05-20T11:19:38.984Z,39.80
2023-05-20T11:24:31.813Z,39.65
2023-05-20T11:29:24.955Z,39.44
2023-05-20T11:34:17.986Z,39.91
2023-05-20T11:39:16.060Z,39.68
2023-05-20T11:44:13.533Z,39.59
2023-05-20T11:49:08.738Z,39.03
2023-05-20T11:54:03.584Z,38.99
2023-05-20T11:58:59.138Z,39.47
2023-05-20T12:03:52.341Z,39.87
2023-05-20T12:08:45.676Z,40.08
2023-05-20T12:13:44.762Z,40.74
2023-05-20T12:18:38.093Z,41.63
2023-05-20T12:23:34.395Z,42.00
2023-05-20T12:28:27.490Z,42.17
2023-05-20T12:33:20.976Z,42.85
2023-05-20T12:38:13.886Z,43.14
2023-05-20T12:43:07.178Z,43.76
2023-05-20T12:48:00.581Z,44.06
2023-05-20T12:52:53.479Z,44.34
2023-05-20T12:57:48.662Z,44.64
2023-05-20T13:02:43.924Z,45.20
2023-05-20T13:07:37.476Z,45.49
2023-05-20T13:12:31.195Z,46.11
2023-05-20T13:17:24.117Z,47.18
2023-05-20T13:22:17.071Z,47.02
2023-05-20T13:27:10.307Z,45.18
2023-05-20T13:32:03.213Z,44.90
2023-05-20T13:36:56.105Z,43.51
2023-05-20T13:41:49.459Z,43.43
2023-05-20T13:46:42.621Z,42.97
2023-05-20T13:51:35.972Z,42.54
2023-05-20T13:56:29.367Z,42.84
2023-05-20T14:01:22.334Z,42.51
2023-05-20T14:06:18.943Z,42.41
2023-05-20T14:11:11.851Z,41.97
2023-05-20T14:16:05.118Z,41.70
2023-05-20T14:21:50.051Z,41.25
2023-05-20T14:26:59.273Z,40.83
2023-05-20T14:31:52.274Z,41.18
2023-05-20T14:36:45.389Z,41.52
2023-05-20T14:41:38.534Z,41.77
2023-05-20T14:46:31.966Z,41.05
2023-05-20T14:51:25.317Z,40.90
2023-05-20T14:56:26.053Z,40.79
2023-05-20T15:01:40.758Z,40.84
2023-05-20T15:06:37.375Z,40.91
2023-05-20T15:11:45.324Z,41.81
2023-05-20T15:17:01.662Z,42.10
2023-05-20T15:22:11.765Z,41.97
2023-05-20T15:27:16.531Z,41.79
2023-05-20T15:32:14.439Z,42.02
2023-05-20T15:37:10.572Z,41.85
2023-05-20T15:42:24.658Z,42.21
2023-05-20T15:48:21.888Z,42.47
2023-05-20T15:56:36.202Z,42.92
2023-05-20T16:05:42.461Z,43.88
2023-05-20T16:10:43.910Z,43.69
2023-05-20T16:15:51.546Z,43.46
2023-05-20T16:20:59.508Z,43.32
2023-05-20T16:25:54.991Z,43.33
2023-05-20T16:31:09.682Z,43.87
2023-05-20T16:42:27.668Z,43.54
2023-05-20T16:47:35.400Z,43.26
2023-05-20T16:52:49.176Z,43.45
2023-05-20T16:58:22.203Z,43.60
2023-05-20T17:03:38.596Z,43.74
2023-05-20T17:09:13.587Z,44.13
2023-05-20T17:21:07.685Z,44.77
2023-05-20T17:32:20.678Z,45.88
2023-05-20T17:37:46.750Z,46.51
2023-05-20T17:43:18.738Z,47.13
2023-05-20T18:00:57.354Z,49.53
2023-05-20T18:06:15.184Z,50.08
2023-05-20T18:11:08.728Z,50.48
2023-05-20T18:16:06.920Z,51.06
2023-05-20T18:21:07.998Z,51.51
2023-05-20T18:26:24.868Z,51.98
2023-05-20T18:31:29.606Z,52.81
2023-05-20T18:36:47.954Z,53.19
2023-05-20T18:41:54.508Z,53.64
2023-05-20T18:46:49.412Z,54.45
2023-05-20T18:51:46.439Z,54.57
2023-05-20T19:03:42.081Z,55.75
2023-05-20T19:08:59.097Z,56.27
2023-05-20T19:13:58.320Z,56.70
2023-05-20T19:18:54.309Z,57.14
2023-05-20T19:23:47.295Z,57.45
2023-05-20T19:28:40.197Z,57.90
2023-05-20T19:33:33.100Z,58.39
2023-05-20T19:38:26.484Z,58.81
2023-05-20T19:43:19.373Z,59.22
2023-05-20T19:48:12.391Z,59.66
2023-05-20T19:53:07.530Z,59.97
2023-05-20T19:58:00.989Z,60.31
2023-05-20T20:02:53.883Z,60.51
2023-05-20T20:07:48.077Z,60.97
2023-05-20T20:12:40.983Z,61.48
2023-05-20T20:17:34.417Z,61.47
2023-05-20T20:22:27.344Z,61.47
2023-05-20T20:27:20.650Z,61.70
2023-05-20T20:32:13.674Z,61.98
2023-05-20T20:37:07.832Z,62.36
2023-05-20T20:42:03.258Z,62.47
2023-05-20T20:46:58.478Z,62.63
2023-05-20T20:51:52.151Z,62.73
2023-05-20T20:56:47.535Z,63.12
2023-05-20T21:01:45.116Z,63.18
2023-05-20T21:06:38.750Z,63.50
2023-05-20T21:11:31.892Z,63.59
2023-05-20T21:16:24.831Z,63.73
2023-05-20T21:21:20.645Z,63.97
2023-05-20T21:26:13.520Z,64.22
2023-05-20T21:31:06.454Z,64.26
2023-05-20T21:35:59.363Z,64.33
2023-05-20T21:40:59.075Z,64.66
2023-05-20T21:45:52.283Z,64.85
2023-05-20T21:50:45.460Z,64.91
2023-05-20T21:55:38.610Z,65.02
2023-05-20T22:00:32.318Z,65.08
2023-05-20T22:05:25.612Z,65.22
2023-05-20T22:10:21.260Z,65.35
2023-05-20T22:15:16.309Z,65.43
2023-05-20T22:20:10.845Z,65.59
2023-05-20T22:25:04.742Z,65.88
2023-05-20T22:29:57.888Z,65.91
2023-05-20T22:34:53.999Z,66.08
2023-05-20T22:39:47.106Z,66.12
2023-05-20T22:44:40.215Z,66.40
2023-05-20T22:49:33.151Z,66.42
2023-05-20T22:54:26.812Z,66.58
2023-05-20T22:59:24.221Z,66.64
2023-05-20T23:04:17.130Z,66.71
2023-05-20T23:09:11.593Z,67.11
2023-05-20T23:14:05.805Z,66.99
2023-05-20T23:18:59.005Z,67.11
2023-05-20T23:23:51.921Z,67.18
2023-05-20T23:28:45.181Z,67.44
2023-05-20T23:33:38.267Z,67.58
2023-05-20T23:38:32.233Z,67.57
2023-05-20T23:43:25.135Z,67.89
2023-05-20T23:48:20.143Z,67.88
2023-05-20T23:53:13.059Z,67.80
2023-05-20T23:58:05.988Z,67.96
